createdAt,value
2019-05-11T00:00:09.901Z,69.0
2019-05-11T00:00:57.253Z,69.0
2019-05-11T00:01:45.487Z,69.0
2019-05-11T00:02:33.684Z,69.0
2019-05-11T00:03:28.016Z,68.9
2019-05-11T00:04:15.959Z,69.0
2019-05-11T00:05:03.840Z,69.0
2019-05-11T00:05:52.103Z,68.8
2019-05-11T00:06:40.275Z,68.9
2019-05-11T00:07:34.750Z,68.7
2019-05-11T00:08:22.072Z,68.6
2019-05-11T00:10:46.855Z,68.8
2019-05-11T00:11:40.400Z,68.9
2019-05-11T00:12:28.636Z,68.9
2019-05-11T00:13:16.839Z,68.7
2019-05-11T00:14:05.749Z,68.7
2019-05-11T00:14:53.262Z,68.7
2019-05-11T00:15:46.899Z,68.8
2019-05-11T00:16:35.110Z,68.7
2019-05-11T00:17:23.324Z,68.6
2019-05-11T00:18:12.111Z,68.6
2019-05-11T00:19:00.286Z,68.7
2019-05-11T00:19:53.446Z,68.7
2019-05-11T00:20:41.649Z,68.7
2019-05-11T00:21:30.523Z,68.7
2019-05-11T00:22:18.667Z,68.6
2019-05-11T00:23:06.394Z,68.7
2019-05-11T00:23:59.917Z,68.6
2019-05-11T00:24:48.303Z,68.5
2019-05-11T00:25:36.534Z,68.5
2019-05-11T00:26:25.330Z,68.7
2019-05-11T00:27:12.948Z,68.7
2019-05-11T00:28:06.579Z,68.7
2019-05-11T00:28:54.744Z,68.7
2019-05-11T00:29:43.097Z,68.8
2019-05-11T00:30:31.805Z,68.9
2019-05-11T00:31:21.162Z,68.9
2019-05-11T00:32:13.034Z,69.0
2019-05-11T00:33:01.321Z,68.9
2019-05-11T00:33:49.470Z,68.9
2019-05-11T00:34:38.220Z,69.0
2019-05-11T00:35:26.401Z,69.2
2019-05-11T00:36:20.035Z,69.1
2019-05-11T00:37:07.864Z,69.2
2019-05-11T00:37:56.013Z,69.3
2019-05-11T00:38:24.284Z,69.3
2019-05-11T00:38:40.141Z,69.3
2019-05-11T00:39:28.982Z,69.3
2019-05-11T00:40:22.447Z,69.3
2019-05-11T00:41:10.408Z,69.4
2019-05-11T00:41:58.421Z,69.5
2019-05-11T00:42:47.218Z,69.6
2019-05-11T00:43:35.777Z,69.6
2019-05-11T00:44:28.952Z,70.0
2019-05-11T00:45:17.046Z,70.6
2019-05-11T00:46:05.058Z,70.5
2019-05-11T00:46:53.798Z,71.0
2019-05-11T00:47:41.490Z,71.7
2019-05-11T00:48:35.875Z,71.6
2019-05-11T00:49:23.614Z,71.6
2019-05-11T00:50:11.959Z,72.2
2019-05-11T00:51:00.363Z,72.4
2019-05-11T00:51:48.362Z,72.3
2019-05-11T00:52:41.535Z,72.3
2019-05-11T00:53:29.842Z,72.4
2019-05-11T00:54:18.458Z,72.5
2019-05-11T00:55:07.080Z,73.0
2019-05-11T00:55:54.502Z,73.6
2019-05-11T00:56:48.651Z,73.5
2019-05-11T00:57:36.308Z,73.1
2019-05-11T00:58:24.580Z,73.1
2019-05-11T00:58:59.512Z,73.1
2019-05-11T00:59:21.490Z,73.3
2019-05-11T00:59:58.683Z,73.5
2019-05-11T01:00:52.685Z,73.5
2019-05-11T01:01:40.501Z,73.4
2019-05-11T01:02:28.667Z,73.5
2019-05-11T01:03:18.156Z,74.0
2019-05-11T01:04:05.638Z,74.0
2019-05-11T01:04:59.170Z,74.2
2019-05-11T01:05:47.509Z,73.9
2019-05-11T01:06:35.219Z,74.2
2019-05-11T01:07:24.496Z,74.3
2019-05-11T01:08:11.682Z,74.8
2019-05-11T01:09:56.980Z,74.5
2019-05-11T01:10:42.812Z,74.4
2019-05-11T01:11:30.334Z,74.7
2019-05-11T01:12:18.559Z,74.5
2019-05-11T01:13:12.336Z,74.0
2019-05-11T01:14:00.963Z,73.9
2019-05-11T01:14:48.666Z,73.9
2019-05-11T01:15:37.244Z,74.1
2019-05-11T01:16:24.711Z,74.1
2019-05-11T01:17:19.333Z,74.0
2019-05-11T01:18:06.482Z,73.9
2019-05-11T01:18:55.267Z,73.9
2019-05-11T01:19:43.620Z,74.2
2019-05-11T01:20:31.647Z,73.9
2019-05-11T01:21:25.365Z,73.9
2019-05-11T01:22:13.414Z,73.9
2019-05-11T01:23:01.648Z,73.9
2019-05-11T01:23:49.989Z,74.0
2019-05-11T01:24:38.100Z,73.7
2019-05-11T01:25:31.787Z,73.8
2019-05-11T01:26:19.889Z,74.0
2019-05-11T01:27:07.835Z,74.4
2019-05-11T01:27:55.936Z,74.2
2019-05-11T01:28:44.239Z,74.0
2019-05-11T01:29:38.842Z,74.1
2019-05-11T01:30:26.041Z,74.2
2019-05-11T01:31:14.938Z,74.2
2019-05-11T01:32:02.836Z,74.0
2019-05-11T01:32:51.161Z,74.2
2019-05-11T01:33:45.421Z,74.4
2019-05-11T01:34:32.594Z,74.4
2019-05-11T01:35:21.315Z,74.6
2019-05-11T01:36:09.851Z,75.0
2019-05-11T01:36:57.753Z,74.8
2019-05-11T01:37:51.374Z,74.7
2019-05-11T01:38:39.054Z,74.6
2019-05-11T01:39:27.366Z,74.7
2019-05-11T01:40:16.099Z,74.7
2019-05-11T01:41:03.837Z,74.6
2019-05-11T01:41:57.960Z,74.8
2019-05-11T01:42:45.558Z,75.0
2019-05-11T01:43:34.287Z,75.1
2019-05-11T01:44:22.588Z,75.2
2019-05-11T01:45:10.375Z,75.1
2019-05-11T01:46:04.506Z,75.2
2019-05-11T01:46:52.094Z,75.4
2019-05-11T01:47:40.378Z,75.6
2019-05-11T01:48:28.645Z,75.7
2019-05-11T01:49:17.482Z,75.7
2019-05-11T01:50:12.639Z,76.0
2019-05-11T01:50:58.711Z,76.4
2019-05-11T01:51:47.397Z,76.4
2019-05-11T01:52:35.146Z,76.3
2019-05-11T01:53:23.409Z,76.5
2019-05-11T01:54:17.874Z,76.7
2019-05-11T01:55:05.749Z,76.9
2019-05-11T01:55:53.878Z,77.2
2019-05-11T01:56:42.097Z,77.1
2019-05-11T01:57:29.841Z,77.2
2019-05-11T01:58:24.216Z,77.3
2019-05-11T01:59:11.729Z,77.3
2019-05-11T02:00:00.371Z,77.6
2019-05-11T02:00:48.202Z,77.4
2019-05-11T02:01:36.916Z,77.5
2019-05-11T02:02:30.680Z,77.2
2019-05-11T02:03:18.623Z,77.3
2019-05-11T02:04:06.571Z,77.4
2019-05-11T02:04:54.717Z,77.4
2019-05-11T02:05:43.327Z,77.4
2019-05-11T02:06:37.062Z,77.3
2019-05-11T02:07:25.287Z,77.9
2019-05-11T02:08:12.966Z,77.8
2019-05-11T02:09:01.231Z,77.8
2019-05-11T02:09:50.394Z,77.7
2019-05-11T02:10:44.804Z,77.3
2019-05-11T02:11:31.625Z,77.2
2019-05-11T02:12:19.928Z,77.5
2019-05-11T02:13:07.766Z,77.0
2019-05-11T02:13:55.932Z,77.0
2019-05-11T02:14:50.336Z,77.2
2019-05-11T02:15:38.105Z,76.8
2019-05-11T02:16:26.475Z,76.8
2019-05-11T02:17:14.222Z,76.8
2019-05-11T02:18:02.617Z,77.1
2019-05-11T02:18:56.949Z,76.6
2019-05-11T02:19:44.745Z,76.9
2019-05-11T02:20:32.489Z,77.1
2019-05-11T02:21:21.093Z,76.9
2019-05-11T02:22:09.553Z,77.1
2019-05-11T02:23:03.639Z,77.6
2019-05-11T02:23:51.224Z,77.6
2019-05-11T02:24:38.925Z,78.1
2019-05-11T02:25:27.678Z,77.7
2019-05-11T02:26:15.982Z,77.7
2019-05-11T02:27:09.617Z,77.6
2019-05-11T02:27:57.179Z,77.6
2019-05-11T02:28:45.422Z,77.3
2019-05-11T02:29:34.249Z,77.5
2019-05-11T02:30:23.106Z,77.4
2019-05-11T02:31:16.099Z,77.9
2019-05-11T02:32:06.768Z,77.9
2019-05-11T02:32:07.142Z,77.8
2019-05-11T02:32:48.540Z,78.3
2019-05-11T02:33:37.253Z,78.7
2019-05-11T02:34:25.267Z,78.6
2019-05-11T02:35:19.625Z,79.1
2019-05-11T02:36:03.219Z,79.1
2019-05-11T02:36:04.740Z,78.9
2019-05-11T02:36:52.987Z,79.5
2019-05-11T02:37:41.220Z,80.2
2019-05-11T02:38:29.494Z,79.8
2019-05-11T02:39:24.231Z,80.2
2019-05-11T02:40:11.992Z,81.0
2019-05-11T02:40:59.506Z,81.5
2019-05-11T02:41:48.278Z,81.2
2019-05-11T02:42:36.279Z,81.2
2019-05-11T02:43:30.624Z,81.1
2019-05-11T02:44:18.136Z,81.1
2019-05-11T02:45:06.054Z,81.4
2019-05-11T02:45:54.731Z,81.5
2019-05-11T02:46:42.435Z,81.4
2019-05-11T02:47:36.738Z,81.6
2019-05-11T02:48:24.248Z,81.2
2019-05-11T02:49:13.393Z,81.1
2019-05-11T02:50:03.157Z,82.1
2019-05-11T02:50:48.985Z,82.1
2019-05-11T02:51:43.577Z,82.1
2019-05-11T02:52:30.746Z,81.5
2019-05-11T02:53:19.656Z,81.6
2019-05-11T02:54:07.245Z,82.1
2019-05-11T02:54:55.411Z,81.9
2019-05-11T02:55:49.661Z,82.0
2019-05-11T02:56:37.302Z,82.2
2019-05-11T02:57:25.596Z,82.3
2019-05-11T02:58:13.669Z,82.4
2019-05-11T02:59:02.619Z,82.1
2019-05-11T02:59:56.564Z,82.1
2019-05-11T03:00:43.779Z,82.0
2019-05-11T03:01:32.437Z,82.1
2019-05-11T03:02:20.639Z,82.2
2019-05-11T03:03:08.465Z,82.2
2019-05-11T03:04:02.860Z,81.9
2019-05-11T03:04:50.222Z,82.0
2019-05-11T03:05:38.800Z,82.5
2019-05-11T03:06:27.326Z,82.3
2019-05-11T03:07:15.354Z,82.2
2019-05-11T03:08:09.230Z,82.1
2019-05-11T03:08:56.685Z,82.2
2019-05-11T03:09:45.483Z,82.3
2019-05-11T03:10:33.708Z,82.1
2019-05-11T03:11:21.485Z,82.2
2019-05-11T03:12:16.218Z,82.5
2019-05-11T03:13:03.200Z,81.9
2019-05-11T03:13:51.852Z,81.8
2019-05-11T03:14:40.257Z,82.0
2019-05-11T03:15:27.935Z,81.9
2019-05-11T03:16:22.732Z,81.6
2019-05-11T03:17:13.087Z,82.0
2019-05-11T03:17:57.898Z,82.0
2019-05-11T03:18:46.165Z,81.8
2019-05-11T03:19:34.368Z,82.0
2019-05-11T03:20:33.350Z,81.8
2019-05-11T03:21:16.355Z,81.5
2019-05-11T03:22:05.014Z,81.7
2019-05-11T03:22:52.636Z,81.8
2019-05-11T03:23:40.851Z,82.0
2019-05-11T03:24:35.117Z,82.0
2019-05-11T03:25:23.103Z,82.1
2019-05-11T03:26:11.882Z,82.0
2019-05-11T03:26:59.091Z,82.0
2019-05-11T03:27:38.384Z,82.0
2019-05-11T03:27:40.579Z,82.0
2019-05-11T03:28:34.816Z,82.1
2019-05-11T03:29:22.527Z,82.1
2019-05-11T03:30:14.610Z,82.4
2019-05-11T03:30:59.474Z,82.4
2019-05-11T03:31:47.388Z,82.4
2019-05-11T03:32:41.301Z,82.5
2019-05-11T03:33:29.508Z,82.4
2019-05-11T03:34:17.708Z,82.5
2019-05-11T03:35:05.504Z,82.6
2019-05-11T03:35:53.561Z,82.6
2019-05-11T03:36:47.722Z,82.5
2019-05-11T03:37:35.784Z,82.5
2019-05-11T03:38:23.659Z,82.9
2019-05-11T03:39:17.464Z,82.7
2019-05-11T03:40:00.046Z,82.5
2019-05-11T03:40:55.342Z,82.6
2019-05-11T03:41:41.854Z,83.0
2019-05-11T03:42:30.107Z,82.7
2019-05-11T03:43:18.413Z,82.6
2019-05-11T03:44:06.642Z,82.6
2019-05-11T03:45:02.517Z,82.5
2019-05-11T03:45:48.350Z,82.4
2019-05-11T03:46:33.934Z,82.4
2019-05-11T03:46:36.042Z,82.7
2019-05-11T03:47:25.155Z,82.7
2019-05-11T03:48:12.583Z,82.6
2019-05-11T03:49:06.731Z,82.4
2019-05-11T03:49:54.328Z,82.3
2019-05-11T03:50:42.615Z,82.3
2019-05-11T03:51:31.240Z,82.1
2019-05-11T03:52:19.094Z,82.0
2019-05-11T03:53:14.244Z,82.3
2019-05-11T03:54:01.719Z,82.6
2019-05-11T03:54:49.567Z,82.8
2019-05-11T03:55:37.697Z,83.2
2019-05-11T03:56:25.955Z,82.8
2019-05-11T03:57:20.232Z,82.8
2019-05-11T03:58:07.374Z,83.0
2019-05-11T03:58:56.316Z,82.9
2019-05-11T03:59:44.384Z,82.9
2019-05-11T04:00:32.351Z,83.0
2019-05-11T04:01:26.562Z,83.1
2019-05-11T04:02:14.283Z,83.3
2019-05-11T04:03:02.176Z,83.1
2019-05-11T04:03:50.760Z,83.2
2019-05-11T04:04:38.523Z,83.3
2019-05-11T04:05:33.317Z,83.1
2019-05-11T04:06:20.371Z,83.2
2019-05-11T04:07:03.183Z,83.2
2019-05-11T04:07:05.186Z,83.1
2019-05-11T04:07:53.510Z,82.9
2019-05-11T04:08:42.288Z,83.0
2019-05-11T04:09:36.337Z,83.0
2019-05-11T04:10:25.356Z,82.9
2019-05-11T04:11:12.387Z,82.8
2019-05-11T04:12:02.040Z,82.9
2019-05-11T04:12:48.644Z,83.1
2019-05-11T04:13:43.012Z,83.6
2019-05-11T04:13:47.777Z,83.6
2019-05-11T04:14:26.992Z,83.9
2019-05-11T04:15:14.858Z,84.5
2019-05-11T04:16:02.912Z,84.6
2019-05-11T04:16:51.669Z,84.8
2019-05-11T04:17:45.864Z,85.2
2019-05-11T04:18:33.346Z,85.1
2019-05-11T04:19:21.224Z,85.2
2019-05-11T04:20:12.472Z,85.4
2019-05-11T04:20:58.040Z,85.4
2019-05-11T04:21:52.165Z,85.4
2019-05-11T04:22:40.044Z,85.4
2019-05-11T04:23:28.060Z,85.4
2019-05-11T04:24:16.452Z,85.0
2019-05-11T04:25:10.662Z,85.1
2019-05-11T04:26:47.453Z,85.1
2019-05-11T04:27:35.559Z,85.3
2019-05-11T04:30:57.844Z,85.3
2019-05-11T04:42:23.794Z,84.6
2019-05-11T04:43:11.815Z,84.7
2019-05-11T04:44:00.091Z,84.9
2019-05-11T04:44:52.160Z,84.6
2019-05-11T04:45:37.329Z,84.9
2019-05-11T04:46:30.087Z,85.0
2019-05-11T04:47:18.311Z,85.3
2019-05-11T04:48:06.569Z,85.0
2019-05-11T04:48:54.760Z,85.4
2019-05-11T04:49:43.574Z,85.4
2019-05-11T04:50:36.572Z,85.7
2019-05-11T04:51:24.806Z,85.4
2019-05-11T04:52:13.032Z,85.3
2019-05-11T04:53:01.266Z,84.9
2019-05-11T04:53:50.017Z,84.9
2019-05-11T04:54:43.053Z,84.9
2019-05-11T04:55:31.317Z,85.4
2019-05-11T04:56:19.499Z,85.2
2019-05-11T04:57:07.724Z,85.3
2019-05-11T04:57:56.552Z,85.2
2019-05-11T04:58:37.380Z,85.2
2019-05-11T04:58:41.759Z,85.2
2019-05-11T04:59:30.032Z,85.1
2019-05-11T05:00:18.222Z,84.7
2019-05-11T05:01:06.450Z,84.4
2019-05-11T05:01:55.211Z,84.1
2019-05-11T05:02:48.238Z,84.2
2019-05-11T05:03:40.913Z,84.3
2019-05-11T05:04:24.717Z,84.4
2019-05-11T05:05:12.938Z,84.3
2019-05-11T05:06:21.299Z,84.0
2019-05-11T05:06:59.742Z,83.8
2019-05-11T05:07:48.870Z,83.8
2019-05-11T05:08:31.194Z,83.9
2019-05-11T05:09:19.481Z,83.7
2019-05-11T05:10:08.223Z,83.5
2019-05-11T05:11:01.222Z,83.8
2019-05-11T05:11:49.469Z,83.7
2019-05-11T05:12:37.677Z,83.6
2019-05-11T05:13:29.430Z,83.4
2019-05-11T05:14:14.712Z,83.1
2019-05-11T05:15:07.717Z,83.1
2019-05-11T05:15:55.944Z,83.2
2019-05-11T05:16:44.204Z,83.2
2019-05-11T05:17:32.438Z,83.2
2019-05-11T05:18:22.716Z,83.6
2019-05-11T05:19:14.223Z,83.8
2019-05-11T05:20:02.460Z,83.4
2019-05-11T05:20:50.686Z,83.5
2019-05-11T05:21:38.981Z,83.5
2019-05-11T05:22:19.141Z,83.5
2019-05-11T05:22:21.681Z,83.3
2019-05-11T05:23:14.767Z,83.4
2019-05-11T05:24:02.985Z,83.3
2019-05-11T05:24:51.212Z,83.6
2019-05-11T05:25:39.447Z,83.4
2019-05-11T05:26:28.209Z,83.3
2019-05-11T05:27:21.270Z,83.4
2019-05-11T05:28:09.483Z,83.5
2019-05-11T05:28:57.708Z,83.5
2019-05-11T05:29:45.935Z,83.6
2019-05-11T05:30:34.740Z,83.4
2019-05-11T05:31:27.814Z,83.4
2019-05-11T05:32:15.997Z,83.4
2019-05-11T05:33:04.209Z,83.4
2019-05-11T05:33:52.446Z,83.4
2019-05-11T05:34:41.163Z,83.6
2019-05-11T05:35:34.186Z,83.6
2019-05-11T05:36:22.427Z,83.7
2019-05-11T05:37:10.648Z,83.9
2019-05-11T05:37:58.871Z,83.4
2019-05-11T05:38:47.649Z,83.1
2019-05-11T05:39:40.809Z,83.2
2019-05-11T05:40:28.917Z,83.1
2019-05-11T05:41:17.146Z,83.1
2019-05-11T05:42:05.399Z,82.9
2019-05-11T05:42:54.182Z,82.7
2019-05-11T05:43:06.615Z,82.7
2019-05-11T05:43:41.546Z,82.7
2019-05-11T05:44:29.790Z,82.5
2019-05-11T05:45:17.987Z,82.4
2019-05-11T05:46:06.216Z,82.5
2019-05-11T05:46:55.036Z,82.4
2019-05-11T05:47:48.064Z,82.6
2019-05-11T05:48:36.278Z,82.6
2019-05-11T05:49:24.519Z,82.2
2019-05-11T05:50:12.760Z,82.3
2019-05-11T05:51:01.529Z,82.1
2019-05-11T05:51:58.060Z,82.3
2019-05-11T05:52:42.803Z,82.5
2019-05-11T05:53:31.005Z,82.3
2019-05-11T05:54:19.260Z,82.2
2019-05-11T05:55:08.104Z,82.2
2019-05-11T05:56:01.033Z,82.3
2019-05-11T05:56:49.270Z,82.3
2019-05-11T05:57:37.491Z,82.3
2019-05-11T05:58:25.725Z,82.0
2019-05-11T05:59:14.633Z,82.0
2019-05-11T06:00:07.597Z,81.9
2019-05-11T06:00:55.841Z,81.9
2019-05-11T06:01:44.060Z,81.9
2019-05-11T06:02:32.270Z,82.1
2019-05-11T06:03:21.167Z,82.2
2019-05-11T06:04:14.095Z,81.9
2019-05-11T06:05:02.347Z,82.1
2019-05-11T06:05:50.568Z,81.8
2019-05-11T06:06:38.822Z,81.8
2019-05-11T06:07:27.596Z,81.4
2019-05-11T06:08:20.685Z,81.3
2019-05-11T06:09:08.885Z,81.8
2019-05-11T06:09:57.163Z,81.7
2019-05-11T06:10:45.357Z,81.5
2019-05-11T06:11:34.595Z,81.4
2019-05-11T06:12:27.172Z,81.3
2019-05-11T06:13:15.448Z,81.5
2019-05-11T06:14:03.688Z,81.2
2019-05-11T06:14:51.903Z,81.2
2019-05-11T06:15:40.759Z,81.2
2019-05-11T06:16:33.746Z,81.1
2019-05-11T06:17:21.975Z,81.3
2019-05-11T06:18:10.213Z,81.2
2019-05-11T06:18:58.574Z,81.4
2019-05-11T06:19:47.248Z,80.8
2019-05-11T06:20:40.279Z,80.7
2019-05-11T06:21:28.517Z,80.8
2019-05-11T06:22:16.737Z,81.1
2019-05-11T06:23:04.979Z,80.7
2019-05-11T06:23:53.831Z,80.7
2019-05-11T06:24:46.825Z,81.1
2019-05-11T06:25:35.057Z,81.3
2019-05-11T06:26:23.301Z,81.1
2019-05-11T06:27:11.545Z,81.1
2019-05-11T06:28:00.673Z,81.1
2019-05-11T06:28:53.367Z,81.2
2019-05-11T06:29:41.621Z,81.2
2019-05-11T06:30:29.829Z,81.2
2019-05-11T06:31:18.081Z,81.4
2019-05-11T06:32:06.909Z,81.5
2019-05-11T06:32:59.893Z,81.2
2019-05-11T06:33:48.157Z,81.1
2019-05-11T06:34:36.370Z,81.3
2019-05-11T06:35:24.612Z,81.1
2019-05-11T06:36:13.459Z,80.9
2019-05-11T06:37:06.444Z,80.9
2019-05-11T06:37:54.683Z,80.4
2019-05-11T06:38:42.927Z,80.1
2019-05-11T06:39:31.155Z,80.2
2019-05-11T06:40:20.006Z,80.2
2019-05-11T06:41:13.029Z,80.2
2019-05-11T06:42:01.257Z,80.5
2019-05-11T06:42:49.507Z,80.6
2019-05-11T06:43:37.742Z,80.8
2019-05-11T06:44:26.537Z,81.0
2019-05-11T06:45:19.572Z,80.8
2019-05-11T06:46:07.922Z,81.0
2019-05-11T06:46:56.049Z,81.4
2019-05-11T06:47:44.318Z,81.7
2019-05-11T06:48:33.191Z,81.8
2019-05-11T06:49:26.160Z,81.9
2019-05-11T06:50:14.407Z,82.1
2019-05-11T06:51:02.634Z,82.0
2019-05-11T06:51:50.913Z,82.3
2019-05-11T06:52:39.676Z,82.5
2019-05-11T06:53:32.692Z,82.4
2019-05-11T06:54:20.943Z,82.6
2019-05-11T06:55:09.176Z,82.3
2019-05-11T06:55:57.416Z,82.2
2019-05-11T06:56:46.402Z,82.3
2019-05-11T06:57:39.236Z,82.8
2019-05-11T06:58:27.479Z,82.5
2019-05-11T06:59:15.716Z,82.4
2019-05-11T07:00:03.968Z,82.5
2019-05-11T07:00:52.775Z,82.7
2019-05-11T07:01:45.823Z,82.7
2019-05-11T07:02:34.077Z,83.4
2019-05-11T07:03:22.272Z,83.4
2019-05-11T07:04:10.510Z,83.2
2019-05-11T07:04:59.290Z,83.3
2019-05-11T07:05:52.362Z,83.4
2019-05-11T07:06:40.625Z,83.3
2019-05-11T07:07:28.841Z,83.0
2019-05-11T07:08:17.102Z,83.3
2019-05-11T07:09:05.897Z,83.1
2019-05-11T07:09:31.080Z,83.1
2019-05-11T07:09:56.847Z,83.2
2019-05-11T07:10:45.075Z,83.0
2019-05-11T07:11:33.390Z,82.9
2019-05-11T07:12:21.730Z,82.5
2019-05-11T07:13:10.432Z,82.7
2019-05-11T07:14:19.073Z,82.5
2019-05-11T07:14:51.634Z,82.2
2019-05-11T07:15:30.804Z,82.1
2019-05-11T07:16:19.028Z,82.2
2019-05-11T07:17:07.827Z,82.1
2019-05-11T07:18:00.887Z,81.9
2019-05-11T07:18:49.152Z,81.5
2019-05-11T07:19:37.377Z,81.2
2019-05-11T07:20:25.626Z,81.3
2019-05-11T07:21:14.451Z,81.3
2019-05-11T07:21:29.822Z,81.3
2019-05-11T07:22:04.630Z,81.2
2019-05-11T07:22:52.895Z,81.3
2019-05-11T07:23:41.188Z,80.8
2019-05-11T07:24:29.393Z,81.0
2019-05-11T07:25:18.195Z,80.8
2019-05-11T07:26:02.158Z,80.5
2019-05-11T07:26:50.433Z,79.9
2019-05-11T07:27:38.642Z,79.7
2019-05-11T07:28:26.895Z,79.9
2019-05-11T07:29:15.754Z,80.1
2019-05-11T07:30:08.741Z,79.7
2019-05-11T07:30:57.007Z,79.3
2019-05-11T07:31:45.277Z,79.2
2019-05-11T07:32:33.533Z,78.8
2019-05-11T07:33:22.354Z,78.6
2019-05-11T07:34:15.385Z,78.7
2019-05-11T07:35:03.648Z,78.7
2019-05-11T07:35:51.891Z,77.6
2019-05-11T07:36:40.182Z,77.5
2019-05-11T07:37:28.984Z,77.0
2019-05-11T07:38:22.005Z,76.8
2019-05-11T07:39:10.249Z,76.4
2019-05-11T07:39:58.516Z,76.2
2019-05-11T07:40:47.682Z,75.8
2019-05-11T07:41:35.664Z,75.2
2019-05-11T07:42:28.827Z,75.4
2019-05-11T07:43:18.767Z,75.5
2019-05-11T07:44:05.173Z,75.4
2019-05-11T07:44:53.400Z,75.7
2019-05-11T07:45:42.236Z,75.2
2019-05-11T07:46:37.564Z,74.5
2019-05-11T07:47:23.538Z,73.8
2019-05-11T07:48:11.813Z,74.0
2019-05-11T07:49:00.063Z,73.3
2019-05-11T07:49:49.005Z,73.2
2019-05-11T07:50:41.967Z,73.7
2019-05-11T07:51:30.219Z,73.3
2019-05-11T07:52:18.472Z,73.2
2019-05-11T07:53:08.143Z,73.2
2019-05-11T07:53:57.657Z,72.8
2019-05-11T07:54:52.649Z,72.9
2019-05-11T07:55:38.519Z,72.7
2019-05-11T07:56:25.193Z,72.3
2019-05-11T07:57:13.464Z,72.8
2019-05-11T07:58:02.278Z,72.7
2019-05-11T07:58:55.336Z,72.9
2019-05-11T07:59:43.581Z,72.9
2019-05-11T08:00:31.878Z,72.7
2019-05-11T08:01:20.165Z,72.9
2019-05-11T08:02:09.060Z,72.9
2019-05-11T08:03:02.040Z,72.7
2019-05-11T08:03:50.327Z,72.7
2019-05-11T08:04:38.534Z,72.8
2019-05-11T08:05:28.371Z,72.7
2019-05-11T08:06:18.031Z,72.6
2019-05-11T08:07:08.703Z,73.0
2019-05-11T08:07:59.282Z,73.0
2019-05-11T08:08:45.245Z,72.4
2019-05-11T08:09:33.491Z,72.8
2019-05-11T08:10:22.781Z,73.1
2019-05-11T08:11:15.380Z,72.7
2019-05-11T08:12:03.657Z,72.6
2019-05-11T08:12:51.948Z,71.9
2019-05-11T08:13:40.224Z,72.6
2019-05-11T08:14:29.069Z,71.9
2019-05-11T08:15:22.049Z,71.9
2019-05-11T08:16:10.330Z,72.1
2019-05-11T08:16:59.391Z,71.2
2019-05-11T08:17:48.706Z,71.4
2019-05-11T08:18:35.723Z,71.0
2019-05-11T08:19:28.760Z,71.5
2019-05-11T08:20:18.694Z,71.3
2019-05-11T08:21:05.305Z,71.1
2019-05-11T08:21:53.562Z,71.0
2019-05-11T08:22:42.395Z,70.9
2019-05-11T08:23:37.583Z,70.8
2019-05-11T08:24:23.709Z,71.0
2019-05-11T08:25:11.998Z,71.4
2019-05-11T08:26:00.314Z,71.4
2019-05-11T08:26:49.137Z,71.7
2019-05-11T08:27:42.201Z,71.9
2019-05-11T08:28:30.458Z,71.9
2019-05-11T08:29:18.731Z,71.6
2019-05-11T08:30:08.522Z,71.6
2019-05-11T08:30:57.939Z,71.1
2019-05-11T08:31:48.950Z,70.7
2019-05-11T08:32:38.716Z,70.2
2019-05-11T08:33:25.487Z,70.5
2019-05-11T08:34:13.719Z,70.3
2019-05-11T08:35:02.558Z,70.3
2019-05-11T08:35:58.091Z,70.3
2019-05-11T08:36:43.923Z,69.5
2019-05-11T08:37:32.193Z,69.4
2019-05-11T08:38:20.466Z,69.8
2019-05-11T08:39:09.341Z,69.8
2019-05-11T08:39:53.841Z,69.8
2019-05-11T08:40:01.379Z,69.3
2019-05-11T08:40:49.647Z,69.1
2019-05-11T08:41:38.595Z,68.9
2019-05-11T08:42:28.696Z,69.0
2019-05-11T08:43:15.069Z,69.0
2019-05-11T08:44:08.895Z,69.1
2019-05-11T08:45:14.359Z,69.7
2019-05-11T08:45:44.752Z,69.7
2019-05-11T08:46:33.026Z,69.6
2019-05-11T08:47:22.424Z,69.4
2019-05-11T08:48:14.940Z,68.9
2019-05-11T08:49:03.214Z,69.1
2019-05-11T08:49:51.509Z,68.0
2019-05-11T08:50:39.824Z,68.1
2019-05-11T08:51:28.697Z,68.2
2019-05-11T08:52:21.767Z,68.1
2019-05-11T08:53:10.050Z,67.9
2019-05-11T08:53:58.477Z,67.9
2019-05-11T08:54:48.694Z,68.2
2019-05-11T08:55:37.976Z,68.7
2019-05-11T08:56:28.994Z,68.4
2019-05-11T08:57:18.018Z,68.4
2019-05-11T08:58:05.144Z,68.7
2019-05-11T08:58:55.266Z,69.1
2019-05-11T08:59:42.252Z,69.3
2019-05-11T09:00:35.367Z,69.2
2019-05-11T09:02:04.067Z,69.2
2019-05-11T09:02:08.094Z,69.4
2019-05-11T09:02:54.138Z,69.5
2019-05-11T09:03:42.420Z,69.6
2019-05-11T09:04:41.573Z,69.2
2019-05-11T09:05:24.369Z,69.2
2019-05-11T09:06:12.735Z,69.6
2019-05-11T09:07:01.577Z,69.8
2019-05-11T09:07:49.262Z,69.8
2019-05-11T09:08:43.445Z,70.0
2019-05-11T09:09:31.177Z,70.0
2019-05-11T09:10:19.534Z,69.8
2019-05-11T09:11:08.440Z,69.8
2019-05-11T09:11:58.623Z,70.1
2019-05-11T09:12:51.242Z,70.1
2019-05-11T09:13:39.385Z,70.2
2019-05-11T09:14:28.375Z,70.3
2019-05-11T09:15:29.969Z,70.0
2019-05-11T09:16:02.837Z,69.7
2019-05-11T09:16:57.740Z,69.6
2019-05-11T09:17:44.813Z,69.6
2019-05-11T09:18:33.088Z,69.2
2019-05-11T09:19:21.346Z,68.6
2019-05-11T09:20:09.643Z,68.3
2019-05-11T09:21:03.855Z,68.1
2019-05-11T09:21:51.566Z,68.2
2019-05-11T09:22:39.864Z,68.2
2019-05-11T09:23:35.581Z,67.7
2019-05-11T09:24:18.752Z,67.2
2019-05-11T09:25:10.713Z,67.3
2019-05-11T09:25:58.550Z,66.6
2019-05-11T09:26:47.942Z,66.0
2019-05-11T09:27:35.033Z,65.2
2019-05-11T09:28:23.278Z,65.1
2019-05-11T09:29:18.042Z,64.3
2019-05-11T09:30:05.224Z,64.1
2019-05-11T09:30:53.528Z,64.0
2019-05-11T09:31:41.836Z,63.9
2019-05-11T09:32:30.158Z,64.0
2019-05-11T09:33:24.424Z,63.2
2019-05-11T09:34:12.095Z,63.4
2019-05-11T09:35:00.687Z,63.8
2019-05-11T09:35:53.088Z,63.8
2019-05-11T09:36:38.814Z,63.0
2019-05-11T09:37:31.294Z,63.7
2019-05-11T09:38:19.002Z,64.4
2019-05-11T09:39:08.440Z,63.8
2019-05-11T09:39:55.646Z,63.5
2019-05-11T09:40:43.979Z,62.5
2019-05-11T09:41:38.471Z,62.8
2019-05-11T09:42:28.409Z,63.4
2019-05-11T09:43:14.252Z,63.0
2019-05-11T09:44:02.544Z,62.7
2019-05-11T09:44:50.868Z,62.0
2019-05-11T09:45:48.667Z,62.6
2019-05-11T09:46:32.841Z,63.2
2019-05-11T09:47:21.138Z,63.3
2019-05-11T09:48:09.433Z,63.0
2019-05-11T09:48:59.017Z,63.5
2019-05-11T09:49:52.064Z,63.4
2019-05-11T09:50:39.720Z,63.8
2019-05-11T09:51:28.813Z,63.8
2019-05-11T09:52:18.273Z,64.0
2019-05-11T09:53:04.655Z,64.4
2019-05-11T09:53:58.919Z,64.8
2019-05-11T09:54:48.583Z,65.0
2019-05-11T09:55:34.990Z,64.6
2019-05-11T09:56:23.237Z,65.0
2019-05-11T09:57:11.550Z,65.0
2019-05-11T09:58:13.823Z,65.5
2019-05-11T09:58:53.507Z,65.8
2019-05-11T09:59:42.542Z,65.7
2019-05-11T10:00:30.159Z,65.5
2019-05-11T10:01:18.592Z,65.6
2019-05-11T10:02:12.681Z,65.6
2019-05-11T10:03:01.069Z,65.0
2019-05-11T10:03:48.661Z,64.8
2019-05-11T10:04:38.019Z,64.8
2019-05-11T10:06:19.274Z,64.7
2019-05-11T10:07:09.029Z,64.8
2019-05-11T10:07:55.567Z,65.5
2019-05-11T10:08:43.842Z,66.2
2019-05-11T10:09:32.789Z,67.0
2019-05-11T10:10:26.076Z,66.6
2019-05-11T10:11:14.643Z,67.0
2019-05-11T10:11:16.188Z,67.0
2019-05-11T10:11:54.035Z,67.2
2019-05-11T10:12:42.342Z,67.5
2019-05-11T10:13:30.688Z,67.8
2019-05-11T10:14:24.270Z,69.0
2019-05-11T10:15:13.174Z,70.0
2019-05-11T10:16:07.074Z,70.2
2019-05-11T10:16:49.329Z,70.4
2019-05-11T10:17:38.309Z,71.0
2019-05-11T10:18:31.166Z,72.4
2019-05-11T10:19:20.300Z,72.7
2019-05-11T10:20:09.264Z,72.4
2019-05-11T10:20:55.975Z,72.8
2019-05-11T10:21:44.283Z,73.3
2019-05-11T10:22:38.561Z,72.4
2019-05-11T10:23:27.915Z,73.0
2019-05-11T10:24:14.507Z,73.3
2019-05-11T10:25:02.812Z,73.3
2019-05-11T10:25:51.135Z,73.0
2019-05-11T10:26:44.726Z,73.4
2019-05-11T10:27:33.694Z,72.4
2019-05-11T10:28:21.316Z,72.3
2019-05-11T10:29:09.629Z,73.0
2019-05-11T10:29:58.945Z,73.2
2019-05-11T10:30:51.514Z,73.4
2019-05-11T10:31:40.369Z,74.1
2019-05-11T10:31:53.361Z,74.1
2019-05-11T10:32:22.890Z,74.3
2019-05-11T10:33:11.266Z,74.3
2019-05-11T10:33:59.456Z,74.7
2019-05-11T10:34:53.094Z,74.6
2019-05-11T10:35:41.917Z,74.4
2019-05-11T10:36:29.681Z,74.0
2019-05-11T10:37:17.929Z,74.3
2019-05-11T10:38:08.818Z,74.1
2019-05-11T10:39:00.532Z,73.3
2019-05-11T10:39:49.003Z,72.0
2019-05-11T10:40:38.579Z,71.6
2019-05-11T10:41:24.710Z,72.1
2019-05-11T10:42:12.996Z,71.2
2019-05-11T10:43:07.917Z,71.3
2019-05-11T10:43:57.775Z,71.1
2019-05-11T10:44:43.191Z,71.1
2019-05-11T10:45:31.495Z,69.8
2019-05-11T10:46:23.234Z,70.5
2019-05-11T10:47:13.561Z,69.5
2019-05-11T10:48:02.319Z,69.3
2019-05-11T10:48:49.986Z,69.4
2019-05-11T10:49:38.344Z,70.0
2019-05-11T10:50:28.685Z,70.3
2019-05-11T10:51:20.227Z,69.9
2019-05-11T10:52:09.885Z,70.0
2019-05-11T10:52:58.915Z,70.7
2019-05-11T10:53:48.266Z,64.9
2019-05-11T10:54:33.399Z,65.3
2019-05-11T10:55:27.930Z,61.6
2019-05-11T10:56:17.854Z,59.9
2019-05-11T10:57:03.631Z,60.4
2019-05-11T10:57:51.919Z,61.5
2019-05-11T10:58:40.203Z,62.5